createdAt,value
2022-10-09T00:01:24.929Z,18.10
2022-10-09T00:03:54.181Z,17.40
2022-10-09T00:06:31.309Z,20.50
2022-10-09T00:08:59.196Z,20.75
2022-10-09T00:11:29.330Z,21.85
2022-10-09T00:13:57.057Z,24.50
2022-10-09T00:16:25.209Z,20.30
2022-10-09T00:18:51.951Z,20.13
2022-10-09T00:21:28.005Z,18.85
2022-10-09T00:23:58.215Z,16.73
2022-10-09T00:26:26.264Z,15.75
2022-10-09T00:28:53.795Z,17.08
2022-10-09T00:31:20.835Z,24.70
2022-10-09T00:33:47.979Z,25.20
2022-10-09T00:36:18.819Z,20.92
2022-10-09T00:38:45.656Z,26.60
2022-10-09T00:41:20.666Z,20.58
2022-10-09T00:43:58.719Z,19.17
2022-10-09T00:46:34.021Z,23.58
2022-10-09T00:49:33.744Z,21.80
2022-10-09T00:52:06.009Z,22.45
2022-10-09T00:54:38.080Z,19.98
2022-10-09T00:57:05.220Z,21.25
2022-10-09T00:59:32.513Z,22.60
2022-10-09T01:01:59.224Z,23.25
2022-10-09T01:04:26.032Z,27.50
2022-10-09T01:06:58.347Z,19.70
2022-10-09T01:09:52.195Z,26.63
2022-10-09T01:13:01.547Z,22.20
2022-10-09T01:15:41.290Z,23.38
2022-10-09T01:18:32.482Z,18.30
2022-10-09T01:21:25.434Z,24.05
2022-10-09T01:24:33.465Z,16.85
2022-10-09T01:27:22.016Z,19.17
2022-10-09T01:29:54.989Z,21.38
2022-10-09T01:32:29.448Z,18.67
2022-10-09T01:34:57.599Z,21.02
2022-10-09T01:37:25.052Z,18.25
2022-10-09T01:39:52.272Z,20.30
2022-10-09T01:42:22.555Z,24.75
2022-10-09T01:44:49.150Z,27.48
2022-10-09T01:47:19.098Z,18.40
2022-10-09T01:50:01.701Z,19.38
2022-10-09T01:52:57.892Z,25.38
2022-10-09T01:55:48.953Z,20.88
2022-10-09T01:58:41.803Z,21.33
2022-10-09T02:01:08.334Z,17.95
2022-10-09T02:03:39.009Z,24.25
2022-10-09T02:06:09.060Z,20.92
2022-10-09T02:08:39.163Z,19.50
2022-10-09T02:11:06.590Z,23.00
2022-10-09T02:13:35.057Z,27.30
2022-10-09T02:16:10.335Z,25.95
2022-10-09T02:18:45.334Z,27.20
2022-10-09T02:21:26.611Z,19.40
2022-10-09T02:23:57.624Z,16.25
2022-10-09T02:26:32.445Z,19.50
2022-10-09T02:28:59.225Z,17.98
2022-10-09T02:31:28.784Z,17.63
2022-10-09T02:34:09.547Z,16.73
2022-10-09T02:36:36.800Z,20.98
2022-10-09T02:39:05.794Z,28.00
2022-10-09T02:41:33.075Z,27.40
2022-10-09T02:43:59.988Z,19.20
2022-10-09T02:46:27.389Z,25.42
2022-10-09T02:48:54.022Z,22.77
2022-10-09T02:51:20.963Z,21.35
2022-10-09T02:53:47.640Z,27.63
2022-10-09T02:56:14.569Z,36.78
2022-10-09T02:58:41.221Z,30.02
2022-10-09T03:01:08.768Z,29.40
2022-10-09T03:03:35.355Z,27.77
2022-10-09T03:06:14.012Z,18.77
2022-10-09T03:08:47.093Z,36.95
2022-10-09T03:11:15.205Z,30.83
2022-10-09T03:13:42.016Z,26.95
2022-10-09T03:16:12.850Z,20.98
2022-10-09T03:18:40.449Z,17.45
2022-10-09T03:21:09.136Z,16.98
2022-10-09T03:23:36.413Z,20.90
2022-10-09T03:26:07.589Z,22.20
2022-10-09T03:28:44.041Z,127.95
2022-10-09T03:31:22.340Z,17.95
2022-10-09T03:33:57.826Z,21.40
2022-10-09T03:36:24.548Z,18.40
2022-10-09T03:38:51.106Z,22.38
2022-10-09T03:41:17.736Z,17.52
2022-10-09T03:43:44.329Z,22.73
2022-10-09T03:46:11.021Z,19.50
2022-10-09T03:48:37.714Z,30.67
2022-10-09T03:51:04.573Z,19.10
2022-10-09T03:53:31.594Z,21.67
2022-10-09T03:55:58.229Z,20.83
2022-10-09T03:58:24.933Z,18.65
2022-10-09T04:00:54.954Z,25.63
2022-10-09T04:03:21.876Z,21.60
2022-10-09T04:05:48.897Z,20.88
2022-10-09T04:08:16.015Z,25.27
2022-10-09T04:10:42.595Z,22.60
2022-10-09T04:13:09.377Z,19.75
2022-10-09T04:15:36.727Z,19.38
2022-10-09T04:18:03.968Z,21.80
2022-10-09T04:20:30.545Z,24.73
2022-10-09T04:22:57.107Z,24.98
2022-10-09T04:25:23.703Z,17.95
2022-10-09T04:27:50.317Z,20.60
2022-10-09T04:30:16.978Z,21.67
2022-10-09T04:32:43.573Z,31.15
2022-10-09T04:35:10.120Z,27.83
2022-10-09T04:37:36.826Z,26.95
2022-10-09T04:40:04.404Z,27.63
2022-10-09T04:42:31.048Z,17.38
2022-10-09T04:44:57.770Z,27.42
2022-10-09T04:47:24.461Z,21.73
2022-10-09T04:49:51.066Z,28.83
2022-10-09T04:52:17.708Z,26.95
2022-10-09T04:54:44.251Z,31.38
2022-10-09T04:57:10.875Z,26.92
2022-10-09T04:59:37.457Z,22.95
2022-10-09T05:02:04.113Z,23.00
2022-10-09T05:04:30.819Z,23.98
2022-10-09T05:06:57.406Z,24.17
2022-10-09T05:09:24.295Z,24.38
2022-10-09T05:11:50.927Z,15.82
2022-10-09T05:14:17.517Z,20.48
2022-10-09T05:17:08.310Z,19.58
2022-10-09T05:19:32.615Z,16.48
2022-10-09T05:22:00.987Z,14.30
2022-10-09T05:24:28.176Z,15.55
2022-10-09T05:26:54.904Z,22.23
2022-10-09T05:29:21.676Z,16.08
2022-10-09T05:31:49.605Z,17.13
2022-10-09T05:34:16.624Z,22.02
2022-10-09T05:36:43.285Z,17.38
2022-10-09T05:39:09.922Z,16.67
2022-10-09T05:41:36.521Z,19.13
2022-10-09T05:44:03.602Z,14.57
2022-10-09T05:46:30.877Z,15.90
2022-10-09T05:49:01.109Z,20.23
2022-10-09T05:51:31.649Z,22.42
2022-10-09T05:54:00.631Z,18.15
2022-10-09T05:56:38.649Z,16.05
2022-10-09T05:59:08.600Z,23.65
2022-10-09T06:01:39.018Z,26.75
2022-10-09T06:04:11.035Z,23.85
2022-10-09T06:06:39.877Z,21.73
2022-10-09T06:09:08.253Z,20.77
2022-10-09T06:11:38.234Z,16.05
2022-10-09T06:14:07.881Z,24.23
2022-10-09T06:16:38.762Z,20.45
2022-10-09T06:19:06.849Z,18.00
2022-10-09T06:21:34.231Z,17.73
2022-10-09T06:24:03.553Z,15.80
2022-10-09T06:26:30.525Z,20.15
2022-10-09T06:28:59.291Z,19.50
2022-10-09T06:31:29.674Z,15.55
2022-10-09T06:33:59.142Z,19.63
2022-10-09T06:36:29.057Z,19.88
2022-10-09T06:38:56.035Z,20.73
2022-10-09T06:41:25.776Z,24.58
2022-10-09T06:44:04.173Z,17.77
2022-10-09T06:46:38.646Z,15.05
2022-10-09T06:49:07.103Z,14.88
2022-10-09T06:51:35.017Z,12.02
2022-10-09T06:54:07.240Z,16.52
2022-10-09T06:56:33.875Z,14.85
2022-10-09T06:59:02.798Z,11.60
2022-10-09T07:01:32.163Z,10.77
2022-10-09T07:04:03.214Z,9.20
2022-10-09T07:06:38.212Z,9.88
2022-10-09T07:09:10.281Z,9.63
2022-10-09T07:11:41.037Z,9.57
2022-10-09T07:14:09.796Z,12.85
2022-10-09T07:16:40.623Z,12.02
2022-10-09T07:19:11.044Z,12.30
2022-10-09T07:21:41.126Z,15.30
2022-10-09T07:24:08.672Z,9.18
2022-10-09T07:26:39.327Z,11.50
2022-10-09T07:29:08.970Z,10.30
2022-10-09T07:31:36.069Z,13.63
2022-10-09T07:34:03.438Z,9.32
2022-10-09T07:36:30.128Z,9.75
2022-10-09T07:38:59.468Z,8.98
2022-10-09T07:41:29.171Z,8.70
2022-10-09T07:43:56.459Z,9.98
2022-10-09T07:46:28.582Z,8.73
2022-10-09T07:48:57.597Z,7.53
2022-10-09T07:51:27.561Z,10.35
2022-10-09T07:53:54.360Z,10.63
2022-10-09T07:56:25.251Z,13.00
2022-10-09T07:58:58.330Z,8.60
2022-10-09T08:01:28.052Z,7.28
2022-10-09T08:03:55.779Z,9.50
2022-10-09T08:06:22.931Z,7.70
2022-10-09T08:08:52.118Z,8.00
2022-10-09T08:11:20.215Z,11.00
2022-10-09T08:13:48.600Z,7.57
2022-10-09T08:16:16.931Z,7.93
2022-10-09T08:18:43.671Z,10.65
2022-10-09T08:21:17.376Z,10.68
2022-10-09T08:23:45.031Z,7.57
2022-10-09T08:26:20.333Z,10.55
2022-10-09T08:28:55.943Z,10.80
2022-10-09T08:31:24.376Z,10.13
2022-10-09T08:33:56.644Z,11.32
2022-10-09T08:36:24.463Z,9.25
2022-10-09T08:38:52.288Z,5.93
2022-10-09T08:41:25.383Z,9.00
2022-10-09T08:44:04.537Z,6.85
2022-10-09T08:46:58.052Z,10.80
2022-10-09T08:49:52.089Z,7.93
2022-10-09T08:52:49.873Z,7.43
2022-10-09T08:55:29.228Z,12.15
2022-10-09T08:58:00.939Z,9.23
2022-10-09T09:00:36.230Z,6.80
2022-10-09T09:03:46.587Z,7.03
2022-10-09T09:06:40.655Z,10.57
2022-10-09T09:09:31.442Z,10.30
2022-10-09T09:12:25.397Z,15.45
2022-10-09T09:15:33.400Z,10.95
2022-10-09T09:18:47.309Z,4.85
2022-10-09T09:21:25.688Z,9.27
2022-10-09T09:23:52.332Z,5.97
2022-10-09T09:26:21.943Z,8.23
2022-10-09T09:28:55.591Z,4.40
2022-10-09T09:31:36.571Z,7.30
2022-10-09T09:34:09.049Z,6.55
2022-10-09T09:36:54.785Z,5.07
2022-10-09T09:42:19.265Z,4.97
2022-10-09T09:45:00.134Z,7.43
2022-10-09T09:47:43.134Z,5.97
2022-10-09T09:50:23.439Z,9.15
2022-10-09T09:52:57.097Z,7.28
2022-10-09T09:55:30.402Z,4.80
2022-10-09T09:58:15.506Z,4.18
2022-10-09T10:00:52.940Z,6.07
2022-10-09T10:03:19.921Z,5.25
2022-10-09T10:05:46.604Z,6.78
2022-10-09T10:08:25.048Z,5.10
2022-10-09T10:10:55.640Z,9.98
2022-10-09T10:13:49.274Z,7.20
2022-10-09T10:16:28.577Z,6.85
2022-10-09T10:18:57.373Z,3.63
2022-10-09T10:21:24.268Z,4.93
2022-10-09T10:23:56.054Z,5.47
2022-10-09T10:26:42.305Z,6.07
2022-10-09T10:29:30.847Z,7.63
2022-10-09T10:32:15.939Z,5.65
2022-10-09T10:34:52.200Z,5.50
2022-10-09T10:37:47.766Z,4.35
2022-10-09T10:40:29.735Z,3.08
2022-10-09T10:43:20.408Z,7.65
2022-10-09T10:46:08.169Z,5.38
2022-10-09T10:48:42.618Z,5.82
2022-10-09T10:52:05.805Z,6.60
2022-10-09T10:54:57.797Z,3.40
2022-10-09T10:57:37.614Z,4.55
2022-10-09T11:00:10.908Z,5.35
2022-10-09T11:03:34.465Z,6.22
2022-10-09T11:06:23.569Z,3.80
2022-10-09T11:09:08.266Z,4.32
2022-10-09T11:11:59.518Z,4.43
2022-10-09T11:14:59.101Z,5.35
2022-10-09T11:17:41.467Z,4.75
2022-10-09T11:20:24.196Z,5.22
2022-10-09T11:23:33.307Z,3.55
2022-10-09T11:26:24.317Z,4.38
2022-10-09T11:29:18.388Z,5.22
2022-10-09T11:32:10.378Z,3.70
2022-10-09T11:35:18.468Z,2.25
2022-10-09T11:37:53.842Z,2.35
2022-10-09T11:40:26.972Z,6.10
2022-10-09T11:43:25.980Z,3.75
2022-10-09T11:46:02.057Z,3.28
2022-10-09T11:48:40.754Z,1.92
2022-10-09T11:51:14.022Z,2.45
2022-10-09T11:53:41.218Z,4.80
2022-10-09T11:56:30.225Z,2.58
2022-10-09T11:59:04.109Z,5.00
2022-10-09T12:01:39.302Z,1.38
2022-10-09T12:04:32.351Z,5.35
2022-10-09T12:07:09.359Z,3.22
2022-10-09T12:09:36.909Z,2.33
2022-10-09T12:12:15.654Z,2.85
2022-10-09T12:14:46.017Z,3.65
2022-10-09T12:17:22.779Z,3.15
2022-10-09T12:20:00.778Z,2.35
2022-10-09T12:22:34.865Z,8.35
2022-10-09T12:25:24.092Z,4.53
2022-10-09T12:27:57.483Z,3.15
2022-10-09T12:30:33.727Z,3.72
2022-10-09T12:33:26.897Z,3.00
2022-10-09T12:36:25.800Z,2.38
2022-10-09T12:38:52.539Z,2.70
2022-10-09T12:41:34.110Z,2.42
2022-10-09T12:44:02.457Z,2.67
2022-10-09T12:46:38.567Z,2.33
2022-10-09T12:49:24.849Z,5.00
2022-10-09T12:51:56.901Z,2.47
2022-10-09T12:54:25.367Z,2.65
2022-10-09T12:56:54.917Z,4.22
2022-10-09T12:59:24.518Z,4.43
2022-10-09T13:01:57.750Z,3.00
2022-10-09T13:04:34.865Z,2.45
2022-10-09T13:07:16.528Z,6.25
2022-10-09T13:09:43.156Z,2.28
2022-10-09T13:12:28.577Z,1.48
2022-10-09T13:14:57.049Z,4.30
2022-10-09T13:17:39.920Z,2.22
2022-10-09T13:20:12.450Z,1.25
2022-10-09T13:22:52.478Z,2.38
2022-10-09T13:25:19.449Z,1.90
2022-10-09T13:27:46.088Z,3.72
2022-10-09T13:30:13.213Z,2.53
2022-10-09T13:32:39.791Z,2.88
2022-10-09T13:35:06.872Z,1.80
2022-10-09T13:37:33.488Z,1.30
2022-10-09T13:40:00.961Z,1.95
2022-10-09T13:42:36.843Z,4.97
2022-10-09T13:45:07.457Z,1.42
2022-10-09T13:47:34.140Z,2.38
2022-10-09T13:50:00.860Z,2.53
2022-10-09T13:52:27.469Z,1.40
2022-10-09T13:54:54.319Z,1.10
2022-10-09T13:57:20.892Z,4.88
2022-10-09T13:59:47.509Z,2.78
2022-10-09T14:02:14.235Z,1.83
2022-10-09T14:04:41.492Z,1.75
2022-10-09T14:07:08.284Z,1.23
2022-10-09T14:09:34.897Z,3.15
2022-10-09T14:12:01.684Z,2.00
2022-10-09T14:14:28.316Z,3.17
2022-10-09T14:16:54.929Z,3.35
2022-10-09T14:19:26.990Z,2.03
2022-10-09T14:21:57.960Z,1.27
2022-10-09T14:24:26.887Z,1.67
2022-10-09T14:26:53.502Z,3.15
2022-10-09T14:29:20.255Z,2.65
2022-10-09T14:31:51.301Z,2.00
2022-10-09T14:34:18.072Z,2.25
2022-10-09T14:36:44.780Z,2.33
2022-10-09T14:39:11.741Z,2.47
2022-10-09T14:41:38.332Z,0.80
2022-10-09T14:44:05.718Z,3.78
2022-10-09T14:46:37.645Z,1.50
2022-10-09T14:49:09.527Z,2.45
2022-10-09T14:51:39.149Z,3.33
2022-10-09T14:54:07.495Z,3.00
2022-10-09T14:56:35.563Z,2.28
2022-10-09T14:59:02.920Z,2.63
2022-10-09T15:01:29.661Z,2.08
2022-10-09T15:03:56.772Z,2.17
2022-10-09T15:06:27.546Z,6.65
2022-10-09T15:09:03.101Z,3.70
2022-10-09T15:11:33.363Z,1.23
2022-10-09T15:14:00.045Z,1.65
2022-10-09T15:16:26.829Z,2.95
2022-10-09T15:18:55.428Z,1.42
2022-10-09T15:21:26.638Z,2.70
2022-10-09T15:23:55.489Z,3.45
2022-10-09T15:26:23.609Z,1.45
2022-10-09T15:28:50.418Z,6.60
2022-10-09T15:31:25.499Z,4.13
2022-10-09T15:33:54.821Z,6.32
2022-10-09T15:36:22.449Z,1.52
2022-10-09T15:38:49.701Z,5.00
2022-10-09T15:41:31.359Z,8.88
2022-10-09T15:44:17.117Z,3.25
2022-10-09T15:46:45.608Z,3.92
2022-10-09T15:49:12.450Z,3.38
2022-10-09T15:51:39.305Z,4.15
2022-10-09T15:54:06.633Z,5.55
2022-10-09T15:56:38.775Z,1.75
2022-10-09T15:59:06.328Z,2.40
2022-10-09T16:01:33.090Z,1.58
2022-10-09T16:03:59.731Z,5.00
2022-10-09T16:06:26.446Z,2.90
2022-10-09T16:08:58.234Z,5.07
2022-10-09T16:11:26.546Z,1.27
2022-10-09T16:13:54.073Z,1.98
2022-10-09T16:16:24.796Z,2.22
2022-10-09T16:18:52.417Z,5.60
2022-10-09T16:21:25.437Z,5.47
2022-10-09T16:23:57.357Z,2.67
2022-10-09T16:26:26.471Z,7.00
2022-10-09T16:28:53.218Z,4.35
2022-10-09T16:31:28.184Z,2.58
2022-10-09T16:33:55.493Z,6.97
2022-10-09T16:36:22.685Z,3.30
2022-10-09T16:38:49.685Z,7.35
2022-10-09T16:41:20.495Z,2.75
2022-10-09T16:43:50.471Z,4.32
2022-10-09T16:46:21.600Z,3.58
2022-10-09T16:48:50.091Z,7.95
2022-10-09T16:51:31.162Z,3.42
2022-10-09T16:54:01.091Z,2.60
2022-10-09T16:56:35.302Z,3.65
2022-10-09T16:59:05.908Z,2.58
2022-10-09T17:01:35.989Z,2.30
2022-10-09T17:04:02.606Z,2.40
2022-10-09T17:06:29.681Z,4.68
2022-10-09T17:08:59.350Z,3.90
2022-10-09T17:11:29.617Z,2.80
2022-10-09T17:13:57.397Z,3.53
2022-10-09T17:16:29.130Z,4.13
2022-10-09T17:18:56.479Z,2.42
2022-10-09T17:21:23.441Z,2.72
2022-10-09T17:23:55.262Z,3.63
2022-10-09T17:26:23.877Z,2.67
2022-10-09T17:28:51.032Z,5.68
2022-10-09T17:31:21.933Z,1.60
2022-10-09T17:33:53.115Z,2.78
2022-10-09T17:36:22.877Z,3.30
2022-10-09T17:38:50.334Z,2.35
2022-10-09T17:41:21.531Z,4.88
2022-10-09T17:43:48.122Z,3.78
2022-10-09T17:46:15.642Z,8.48
2022-10-09T17:48:52.573Z,2.97
2022-10-09T17:51:25.212Z,2.78
2022-10-09T17:53:53.182Z,2.50
2022-10-09T17:56:20.326Z,2.78
2022-10-09T17:58:48.241Z,2.78
2022-10-09T18:01:16.302Z,4.80
2022-10-09T18:03:43.664Z,3.33
2022-10-09T18:06:15.741Z,5.68
2022-10-09T18:08:43.035Z,3.17
2022-10-09T18:11:15.718Z,4.53
2022-10-09T18:13:44.104Z,4.72
2022-10-09T18:16:24.028Z,4.53
2022-10-09T18:18:51.076Z,3.28
2022-10-09T18:21:17.762Z,6.68
2022-10-09T18:23:47.870Z,5.50
2022-10-09T18:26:17.975Z,7.20
2022-10-09T18:28:48.377Z,3.00
2022-10-09T18:31:20.018Z,5.28
2022-10-09T18:33:47.229Z,4.15
2022-10-09T18:36:22.057Z,4.03
2022-10-09T18:38:54.266Z,7.40
2022-10-09T18:41:23.274Z,6.85
2022-10-09T18:43:51.736Z,3.50
2022-10-09T18:46:22.692Z,3.42
2022-10-09T18:48:50.456Z,5.07
2022-10-09T18:51:20.028Z,3.28
2022-10-09T18:53:52.200Z,4.05
2022-10-09T18:56:20.763Z,2.88
2022-10-09T18:58:49.431Z,3.97
2022-10-09T19:01:16.082Z,4.03
2022-10-09T19:03:45.992Z,3.75
2022-10-09T19:06:15.977Z,4.35
2022-10-09T19:08:43.682Z,5.15
2022-10-09T19:11:12.232Z,4.28
2022-10-09T19:13:38.840Z,3.90
2022-10-09T19:16:06.178Z,5.03
2022-10-09T19:18:35.005Z,8.85
2022-10-09T19:21:02.507Z,8.20
2022-10-09T19:23:29.401Z,4.82
2022-10-09T19:25:58.621Z,5.88
2022-10-09T19:28:30.893Z,4.50
2022-10-09T19:30:57.847Z,6.30
2022-10-09T19:33:24.717Z,6.80
2022-10-09T19:35:54.632Z,7.88
2022-10-09T19:38:22.377Z,6.93
2022-10-09T19:40:50.426Z,6.45
2022-10-09T19:43:18.613Z,8.88
2022-10-09T19:45:48.854Z,7.93
2022-10-09T19:48:17.237Z,8.60
2022-10-09T19:50:45.462Z,11.65
2022-10-09T19:53:12.817Z,9.43
2022-10-09T19:55:39.422Z,8.98
2022-10-09T19:58:06.671Z,9.73
2022-10-09T20:00:33.311Z,11.07
2022-10-09T20:02:59.897Z,9.80
2022-10-09T20:05:26.645Z,12.93
2022-10-09T20:07:53.237Z,10.80
2022-10-09T20:10:19.925Z,10.07
2022-10-09T20:12:46.540Z,5.45
2022-10-09T20:15:13.144Z,10.07
2022-10-09T20:17:39.802Z,10.75
2022-10-09T20:20:06.990Z,10.73
2022-10-09T20:22:33.603Z,6.50
2022-10-09T20:25:00.223Z,6.95
2022-10-09T20:27:26.943Z,5.97
2022-10-09T20:29:54.619Z,8.40
2022-10-09T20:32:21.237Z,7.63
2022-10-09T20:34:47.854Z,9.85
2022-10-09T20:37:14.443Z,7.65
2022-10-09T20:39:41.036Z,8.02
2022-10-09T20:42:07.722Z,8.57
2022-10-09T20:44:34.551Z,4.47
2022-10-09T20:47:01.309Z,5.50
2022-10-09T20:49:27.915Z,5.10
2022-10-09T20:51:56.669Z,5.15
2022-10-09T20:54:23.610Z,6.63
2022-10-09T20:56:50.791Z,7.50
2022-10-09T20:59:18.200Z,6.88
2022-10-09T21:01:45.413Z,5.22
2022-10-09T21:04:12.321Z,3.83
2022-10-09T21:06:39.219Z,4.55
2022-10-09T21:09:06.685Z,7.53
2022-10-09T21:11:34.797Z,8.02
2022-10-09T21:14:03.076Z,5.20
2022-10-09T21:16:29.942Z,5.00
2022-10-09T21:19:03.140Z,6.55
2022-10-09T21:21:31.371Z,4.03
2022-10-09T21:23:59.774Z,4.60
2022-10-09T21:26:28.646Z,5.85
2022-10-09T21:28:59.690Z,8.75
2022-10-09T21:31:29.890Z,4.65
2022-10-09T21:33:57.839Z,6.75
2022-10-09T21:37:15.968Z,5.63
2022-10-09T21:39:34.342Z,8.68
2022-10-09T21:42:00.970Z,5.85
2022-10-09T21:44:27.620Z,6.50
2022-10-09T21:46:54.534Z,11.90
2022-10-09T21:49:23.749Z,6.13
2022-10-09T21:51:51.131Z,5.75
2022-10-09T21:54:17.816Z,7.78
2022-10-09T21:56:44.598Z,5.97
2022-10-09T21:59:11.486Z,9.15
2022-10-09T22:01:38.417Z,8.10
2022-10-09T22:04:05.220Z,12.82
2022-10-09T22:06:31.841Z,5.97
2022-10-09T22:08:59.822Z,4.15
2022-10-09T22:11:26.761Z,7.75
2022-10-09T22:13:55.998Z,7.25
2022-10-09T22:16:23.347Z,9.18
2022-10-09T22:18:49.974Z,9.13
2022-10-09T22:21:18.572Z,9.35
2022-10-09T22:23:45.246Z,6.47
2022-10-09T22:26:21.998Z,7.60
2022-10-09T22:28:49.936Z,6.65
2022-10-09T22:31:24.178Z,6.03
2022-10-09T22:33:53.170Z,7.68
2022-10-09T22:36:23.852Z,7.97
2022-10-09T22:38:54.700Z,8.23
2022-10-09T22:41:23.098Z,6.95
2022-10-09T22:43:53.130Z,8.07
2022-10-09T22:46:24.098Z,5.88
2022-10-09T22:48:51.731Z,7.05
2022-10-09T22:51:21.281Z,6.38
2022-10-09T22:53:48.644Z,6.18
2022-10-09T22:56:22.163Z,6.10
2022-10-09T22:58:53.111Z,6.60
2022-10-09T23:01:21.829Z,11.20
2022-10-09T23:03:48.622Z,7.03
2022-10-09T23:06:19.163Z,7.53
2022-10-09T23:08:48.374Z,8.57
2022-10-09T23:11:18.046Z,9.70
2022-10-09T23:13:45.939Z,10.13
2022-10-09T23:16:14.952Z,7.10
2022-10-09T23:18:44.597Z,7.32
2022-10-09T23:21:14.725Z,10.45
2022-10-09T23:23:43.534Z,7.70
2022-10-09T23:26:17.579Z,4.00
2022-10-09T23:28:52.656Z,5.63
2022-10-09T23:31:19.798Z,4.73
2022-10-09T23:33:47.122Z,7.45
2022-10-09T23:36:17.837Z,10.02
2022-10-09T23:38:45.002Z,6.38
2022-10-09T23:41:15.473Z,9.40
2022-10-09T23:43:43.857Z,6.72
2022-10-09T23:46:15.070Z,7.50
2022-10-09T23:48:42.753Z,6.32
2022-10-09T23:51:10.498Z,7.85
2022-10-09T23:53:37.310Z,6.25
2022-10-09T23:56:31.371Z,9.38
2022-10-09T23:59:00.094Z,7.63
